LOWS/SZG METAR and TAF weather

Enter ICAO airport designator
Station Type Date Time Source
LOWS METAR 2018/12/17 16:50 UTC NOAA

LOWS 171650Z 14004KT 9999 FEW030 SCT036 BKN050 01/M02 Q1026 R15/19//95 NOSIG


Station Type Date Time Source
LOWS Decoded METAR 2018/12/17 16:50 UTC NOAA

Salzburg-Flughafen, Austria (LOWS) 47-48N 013-00E 450M
Dec 17, 2018 - 11:50 AM EST / 2018.12.17 1650 UTC
Wind: from the SE (140 degrees) at 5 MPH (4 KT):0
Visibility: greater than 7 mile(s):0
Sky conditions: mostly cloudy
Temperature: 33 F (1 C)
Windchill: 28 F (-2 C):1
Dew Point: 28 F (-2 C)
Relative Humidity: 80%
Pressure (altimeter): 30.30 in. Hg (1026 hPa)
ob: LOWS 171650Z 14004KT 9999 FEW030 SCT036 BKN050 01/M02 Q1026 R15/19//95 NOSIG
cycle: 17

Station Type Date Time Source
LOWS TAF 2018/12/17 18:18 UTC NOAA

TAF LOWS 171715Z 1718/1818 VRB02KT 9999 FEW030 BKN040 TX04/1813Z TNM01/1818Z
TEMPO 1719/1806 4000 -RA BR FEW010 BKN020 PROB30
TEMPO 1719/1724 -FZRA BKN012 PROB30
TEMPO 1800/1806 2500 SHRASN FEW006 BKN012
BECMG 1807/1809 15005KT FEW030


Example: see airport list